createdAt,value
2022-08-26T00:00:05.119Z,101546.13
2022-08-26T00:02:48.675Z,101545.19
2022-08-26T00:05:36.583Z,101543.47
2022-08-26T00:08:19.973Z,101546.09
2022-08-26T00:11:09.393Z,101534.63
2022-08-26T00:13:51.029Z,101548.75
2022-08-26T00:16:41.069Z,101542.59
2022-08-26T00:19:29.511Z,101540.00
2022-08-26T00:22:20.302Z,101543.56
2022-08-26T00:25:04.263Z,101541.84
2022-08-26T00:27:52.922Z,101544.53
2022-08-26T00:30:37.705Z,101543.66
2022-08-26T00:33:27.209Z,101543.69
2022-08-26T00:36:20.087Z,101547.22
2022-08-26T00:39:01.891Z,101553.38
2022-08-26T00:41:49.598Z,101545.53
2022-08-26T00:44:30.767Z,101544.66
2022-08-26T00:47:40.311Z,101534.97
2022-08-26T00:50:28.628Z,101537.63
2022-08-26T00:53:28.590Z,101539.41
2022-08-26T00:56:41.118Z,101538.53
2022-08-26T00:59:32.744Z,101534.09
2022-08-26T01:02:19.925Z,101541.19
2022-08-26T01:05:11.622Z,101538.56
2022-08-26T01:07:53.198Z,101539.44
2022-08-26T01:10:41.459Z,101534.19
2022-08-26T01:13:22.651Z,101531.59
2022-08-26T01:16:14.650Z,101535.09
2022-08-26T01:18:56.300Z,101533.38
2022-08-26T01:21:55.302Z,101534.22
2022-08-26T01:24:37.618Z,101544.78
2022-08-26T01:27:27.933Z,101534.25
2022-08-26T01:30:14.712Z,101544.84
2022-08-26T01:33:04.627Z,101544.88
2022-08-26T01:35:59.540Z,101545.78
2022-08-26T01:38:48.922Z,101541.38
2022-08-26T01:41:32.709Z,101540.50
2022-08-26T01:44:26.588Z,101541.41
2022-08-26T01:47:08.665Z,101543.13
2022-08-26T01:49:59.939Z,101537.88
2022-08-26T01:52:46.215Z,101545.81
2022-08-26T01:55:39.935Z,101551.06
2022-08-26T01:58:43.721Z,101552.81
2022-08-26T02:01:33.755Z,101551.06
2022-08-26T02:04:41.104Z,101545.78
2022-08-26T02:07:33.631Z,101545.78
2022-08-26T02:10:15.695Z,101550.16
2022-08-26T02:13:04.779Z,101550.16
2022-08-26T02:15:51.011Z,101558.97
2022-08-26T02:18:43.986Z,101560.72
2022-08-26T02:21:28.661Z,101566.91
2022-08-26T02:24:22.699Z,101558.97
2022-08-26T02:27:06.647Z,101562.50
2022-08-26T02:30:01.650Z,101564.28
2022-08-26T02:32:43.731Z,101568.66
2022-08-26T02:35:41.311Z,101567.78
2022-08-26T02:38:29.553Z,101575.75
2022-08-26T02:41:12.281Z,101570.47
2022-08-26T02:44:00.715Z,101578.41
2022-08-26T02:46:42.223Z,101573.13
2022-08-26T02:49:34.743Z,101567.84
2022-08-26T02:52:16.037Z,101566.09
2022-08-26T02:55:03.776Z,101566.09
2022-08-26T02:57:45.438Z,101560.84
2022-08-26T03:00:36.424Z,101567.88
2022-08-26T03:03:18.150Z,101569.59
2022-08-26T03:06:07.695Z,101558.19
2022-08-26T03:08:50.975Z,101563.47
2022-08-26T03:11:40.085Z,101560.84
2022-08-26T03:14:22.077Z,101566.09
2022-08-26T03:17:10.722Z,101564.38
2022-08-26T03:19:54.706Z,101564.38
2022-08-26T03:22:49.817Z,101565.25
2022-08-26T03:25:32.995Z,101559.13
2022-08-26T03:28:19.712Z,101568.78
2022-08-26T03:31:00.927Z,101565.25
2022-08-26T03:33:52.476Z,101567.88
2022-08-26T03:36:43.123Z,101571.38
2022-08-26T03:39:24.864Z,101563.47
2022-08-26T03:42:14.021Z,101571.38
2022-08-26T03:44:57.228Z,101572.25
2022-08-26T03:47:43.603Z,101567.84
2022-08-26T03:50:27.735Z,101561.72
2022-08-26T03:53:15.667Z,101566.97
2022-08-26T03:56:00.780Z,101561.69
2022-08-26T03:58:51.459Z,101566.97
2022-08-26T04:01:32.746Z,101563.50
2022-08-26T04:04:22.623Z,101564.38
2022-08-26T04:07:05.217Z,101569.66
2022-08-26T04:09:53.551Z,101562.63
2022-08-26T04:12:34.742Z,101556.47
2022-08-26T04:15:24.133Z,101551.19
2022-08-26T04:18:06.499Z,101562.63
2022-08-26T04:20:56.307Z,101562.63
2022-08-26T04:23:47.616Z,101561.72
2022-08-26T04:26:34.811Z,101557.38
2022-08-26T04:29:20.369Z,101559.97
2022-08-26T04:32:09.696Z,101563.50
2022-08-26T04:34:50.790Z,101563.50
2022-08-26T04:37:43.095Z,101563.50
2022-08-26T04:40:26.695Z,101570.50
2022-08-26T04:43:17.765Z,101569.66
2022-08-26T04:45:59.814Z,101574.94
2022-08-26T04:48:50.406Z,101568.75
2022-08-26T04:51:33.360Z,101566.13
2022-08-26T04:54:21.679Z,101561.75
2022-08-26T04:57:02.799Z,101567.03
2022-08-26T04:59:54.172Z,101569.66
2022-08-26T05:02:36.278Z,101572.31
2022-08-26T05:05:23.658Z,101566.16
2022-08-26T05:08:04.769Z,101564.41
2022-08-26T05:11:04.201Z,101561.75
2022-08-26T05:13:49.983Z,101559.13
2022-08-26T05:16:40.315Z,101560.88
2022-08-26T05:19:21.771Z,101558.25
2022-08-26T05:22:13.199Z,101554.69
2022-08-26T05:24:54.007Z,101560.81
2022-08-26T05:27:40.695Z,101555.63
2022-08-26T05:30:20.791Z,101559.13
2022-08-26T05:33:12.644Z,101565.25
2022-08-26T05:36:06.660Z,101566.97
2022-08-26T05:38:55.706Z,101574.91
2022-08-26T05:41:40.816Z,101570.50
2022-08-26T05:44:35.867Z,101566.94
2022-08-26T05:47:33.251Z,101573.97
2022-08-26T05:50:20.860Z,101571.31
2022-08-26T05:53:01.883Z,101570.41
2022-08-26T05:55:55.836Z,101569.81
2022-08-26T05:58:37.590Z,101567.59
2022-08-26T06:01:29.018Z,101570.78
2022-08-26T06:04:09.787Z,101574.53
2022-08-26T06:06:59.206Z,101564.69
2022-08-26T06:09:44.221Z,101572.50
2022-08-26T06:12:34.120Z,101567.63
2022-08-26T06:15:15.197Z,101571.72
2022-08-26T06:18:05.803Z,101570.44
2022-08-26T06:20:57.302Z,101568.38
2022-08-26T06:24:03.119Z,101570.66
2022-08-26T06:26:44.035Z,101570.34
2022-08-26T06:29:41.513Z,101575.09
2022-08-26T06:32:24.092Z,101563.06
2022-08-26T06:35:13.001Z,101566.50
2022-08-26T06:38:02.684Z,101566.63
2022-08-26T06:40:55.164Z,101563.28
2022-08-26T06:43:41.903Z,101567.88
2022-08-26T06:46:26.065Z,101567.28
2022-08-26T06:49:13.845Z,101566.66
2022-08-26T06:51:59.869Z,101577.66
2022-08-26T06:54:52.344Z,101582.38
2022-08-26T06:57:34.819Z,101575.22
2022-08-26T07:00:24.844Z,101588.50
2022-08-26T07:03:08.010Z,101582.78
2022-08-26T07:05:57.231Z,101589.06
2022-08-26T07:08:41.869Z,101585.44
2022-08-26T07:11:28.870Z,101580.50
2022-08-26T07:14:11.807Z,101587.69
2022-08-26T07:17:03.209Z,101586.50
2022-08-26T07:19:43.774Z,101577.66
2022-08-26T07:22:31.839Z,101580.69
2022-08-26T07:25:15.147Z,101578.56
2022-08-26T07:28:03.431Z,101579.06
2022-08-26T07:30:48.051Z,101576.13
2022-08-26T07:33:36.865Z,101572.97
2022-08-26T07:36:26.215Z,101577.66
2022-08-26T07:39:07.774Z,101578.63
2022-08-26T07:41:58.215Z,101571.59
2022-08-26T07:47:48.500Z,101572.84
2022-08-26T07:50:49.011Z,101577.13
2022-08-26T07:53:37.620Z,101583.03
2022-08-26T07:56:19.098Z,101590.06
2022-08-26T07:59:13.603Z,101581.19
2022-08-26T08:02:00.792Z,101590.81
2022-08-26T08:04:49.195Z,101587.91
2022-08-26T08:07:44.696Z,101582.19
2022-08-26T08:10:34.914Z,101582.97
2022-08-26T08:13:18.528Z,101587.41
2022-08-26T08:16:09.637Z,101582.75
2022-08-26T08:18:55.007Z,101581.66
2022-08-26T08:21:47.386Z,101583.06
2022-08-26T08:24:27.952Z,101579.34
2022-08-26T08:27:21.513Z,101585.72
2022-08-26T08:30:05.028Z,101585.81
2022-08-26T08:32:53.447Z,101578.91
2022-08-26T08:35:36.243Z,101580.91
2022-08-26T08:38:33.893Z,101579.28
2022-08-26T08:41:45.029Z,101589.28
2022-08-26T08:44:33.203Z,101588.81
2022-08-26T08:47:29.141Z,101590.16
2022-08-26T08:50:27.182Z,101591.66
2022-08-26T08:53:20.503Z,101590.56
2022-08-26T08:56:32.246Z,101586.72
2022-08-26T08:59:26.183Z,101581.72
2022-08-26T09:02:25.883Z,101575.47
2022-08-26T09:05:30.022Z,101583.75
2022-08-26T09:08:29.975Z,101573.63
2022-08-26T09:11:11.301Z,101580.84
2022-08-26T09:17:21.949Z,101581.44
2022-08-26T09:20:35.923Z,101569.59
2022-08-26T09:23:19.214Z,101564.56
2022-08-26T09:26:11.553Z,101568.50
2022-08-26T09:29:09.045Z,101570.38
2022-08-26T09:31:57.926Z,101569.91
2022-08-26T09:34:42.236Z,101572.47
2022-08-26T09:37:59.564Z,101568.97
2022-08-26T09:40:47.924Z,101563.72
2022-08-26T09:43:37.841Z,101560.56
2022-08-26T09:46:34.080Z,101557.44
2022-08-26T09:49:37.659Z,101560.03
2022-08-26T09:52:29.965Z,101557.25
2022-08-26T09:55:18.892Z,101555.72
2022-08-26T09:58:08.828Z,101557.41
2022-08-26T10:01:11.870Z,101552.44
2022-08-26T10:04:00.255Z,101547.84
2022-08-26T10:06:46.907Z,101549.19
2022-08-26T10:09:42.124Z,101543.03
2022-08-26T10:12:27.959Z,101540.00
2022-08-26T10:15:18.953Z,101535.47
2022-08-26T10:18:18.291Z,101541.44
2022-08-26T10:21:23.156Z,101541.25
2022-08-26T10:24:11.273Z,101535.19
2022-08-26T10:27:30.264Z,101527.84
2022-08-26T10:30:17.109Z,101525.25
2022-08-26T10:33:10.915Z,101528.72
2022-08-26T10:36:09.452Z,101525.28
2022-08-26T10:39:05.978Z,101523.56
2022-08-26T10:41:52.872Z,101515.59
2022-08-26T10:44:44.567Z,101520.78
2022-08-26T10:47:42.654Z,101521.75
2022-08-26T10:50:38.952Z,101515.78
2022-08-26T10:53:38.331Z,101515.03
2022-08-26T10:57:01.996Z,101523.09
2022-08-26T10:59:45.938Z,101509.56
2022-08-26T11:02:49.953Z,101513.63
2022-08-26T11:05:31.463Z,101515.16
2022-08-26T11:08:41.408Z,101513.25
2022-08-26T11:11:55.984Z,101502.97
2022-08-26T11:14:58.470Z,101507.25
2022-08-26T11:17:52.116Z,101497.03
2022-08-26T11:20:44.944Z,101502.19
2022-08-26T11:23:29.457Z,101500.72
2022-08-26T11:26:35.891Z,101501.63
2022-08-26T11:30:02.655Z,101496.63
2022-08-26T11:33:08.233Z,101502.75
2022-08-26T11:35:48.896Z,101497.75
2022-08-26T11:38:45.923Z,101499.03
2022-08-26T11:41:36.891Z,101494.63
2022-08-26T11:44:18.226Z,101491.31
2022-08-26T11:47:11.601Z,101481.91
2022-08-26T11:49:53.016Z,101487.91
2022-08-26T11:52:44.413Z,101492.88
2022-08-26T11:55:25.435Z,101482.56
2022-08-26T11:58:13.990Z,101485.66
2022-08-26T12:01:11.394Z,101482.16
2022-08-26T12:04:00.091Z,101487.78
2022-08-26T12:06:46.492Z,101477.53
2022-08-26T12:09:39.467Z,101480.56
2022-08-26T12:12:30.755Z,101470.66
2022-08-26T12:15:29.534Z,101474.09
2022-08-26T12:18:28.808Z,101473.81
2022-08-26T12:21:27.421Z,101465.84
2022-08-26T12:24:12.038Z,101468.13
2022-08-26T12:27:22.691Z,101462.63
2022-08-26T12:30:26.506Z,101458.25
2022-08-26T12:33:22.867Z,101447.41
2022-08-26T12:36:05.200Z,101444.41
2022-08-26T12:38:54.542Z,101442.47
2022-08-26T12:41:51.164Z,101450.63
2022-08-26T12:44:54.618Z,101445.81
2022-08-26T12:47:47.079Z,101442.84
2022-08-26T12:50:45.334Z,101440.59
2022-08-26T12:53:38.070Z,101436.09
2022-08-26T12:56:42.962Z,101436.25
2022-08-26T12:59:32.076Z,101430.44
2022-08-26T13:02:42.740Z,101428.22
2022-08-26T13:05:33.332Z,101437.81
2022-08-26T13:08:24.207Z,101425.94
2022-08-26T13:11:20.659Z,101425.00
2022-08-26T13:14:24.561Z,101419.88
2022-08-26T13:17:06.984Z,101418.94
2022-08-26T13:19:54.074Z,101417.63
2022-08-26T13:22:35.125Z,101416.94
2022-08-26T13:25:24.335Z,101411.13
2022-08-26T13:28:05.999Z,101406.63
2022-08-26T13:30:56.487Z,101398.88
2022-08-26T13:33:37.059Z,101397.69
2022-08-26T13:36:33.478Z,101402.28
2022-08-26T13:39:21.485Z,101397.91
2022-08-26T13:42:04.594Z,101406.44
2022-08-26T13:44:53.271Z,101401.44
2022-08-26T13:47:36.252Z,101394.63
2022-08-26T13:50:24.882Z,101404.84
2022-08-26T13:53:06.036Z,101397.59
2022-08-26T13:55:53.287Z,101392.56
2022-08-26T13:58:35.751Z,101395.00
2022-08-26T14:01:26.532Z,101394.38
2022-08-26T14:04:07.488Z,101393.50
2022-08-26T14:06:54.099Z,101385.63
2022-08-26T14:12:45.832Z,101386.25
2022-08-26T14:15:27.657Z,101378.56
2022-08-26T14:18:20.073Z,101382.28
2022-08-26T14:21:08.110Z,101373.81
2022-08-26T14:24:00.794Z,101373.13
2022-08-26T14:26:43.300Z,101371.81
2022-08-26T14:29:31.248Z,101373.44
2022-08-26T14:32:21.023Z,101362.38
2022-08-26T14:35:10.553Z,101360.47
2022-08-26T14:38:05.446Z,101356.06
2022-08-26T14:40:53.309Z,101361.41
2022-08-26T14:43:35.574Z,101357.50
2022-08-26T14:46:26.858Z,101365.22
2022-08-26T14:49:11.441Z,101355.25
2022-08-26T14:51:59.156Z,101353.38
2022-08-26T14:54:42.018Z,101356.03
2022-08-26T14:57:31.736Z,101351.63
2022-08-26T15:00:38.031Z,101345.34
2022-08-26T15:03:25.121Z,101352.94
2022-08-26T15:06:08.247Z,101350.63
2022-08-26T15:08:56.554Z,101346.22
2022-08-26T15:11:39.371Z,101340.28
2022-08-26T15:14:32.681Z,101339.00
2022-08-26T15:17:15.187Z,101338.06
2022-08-26T15:20:03.412Z,101346.22
2022-08-26T15:22:46.433Z,101336.44
2022-08-26T15:25:33.216Z,101337.13
2022-08-26T15:28:14.159Z,101328.56
2022-08-26T15:31:02.168Z,101344.53
2022-08-26T15:33:45.614Z,101340.25
2022-08-26T15:36:41.045Z,101341.28
2022-08-26T15:39:35.162Z,101337.59
2022-08-26T15:42:26.118Z,101335.63
2022-08-26T15:45:07.109Z,101331.81
2022-08-26T15:47:58.140Z,101331.41
2022-08-26T15:50:55.598Z,101321.03
2022-08-26T15:53:42.207Z,101324.00
2022-08-26T15:56:23.805Z,101325.50
2022-08-26T15:59:12.170Z,101319.09
2022-08-26T16:01:54.568Z,101318.88
2022-08-26T16:04:48.313Z,101315.91
2022-08-26T16:07:30.192Z,101316.13
2022-08-26T16:10:18.679Z,101308.31
2022-08-26T16:13:00.516Z,101300.31
2022-08-26T16:15:50.440Z,101306.09
2022-08-26T16:18:31.096Z,101309.00
2022-08-26T16:21:25.216Z,101300.38
2022-08-26T16:24:06.463Z,101298.78
2022-08-26T16:26:55.219Z,101307.78
2022-08-26T16:29:38.295Z,101299.50
2022-08-26T16:32:28.281Z,101305.72
2022-08-26T16:35:12.579Z,101307.66
2022-08-26T16:38:07.069Z,101308.09
2022-08-26T16:40:56.135Z,101302.13
2022-08-26T16:43:38.228Z,101297.06
2022-08-26T16:46:26.250Z,101302.09
2022-08-26T16:49:07.657Z,101293.72
2022-08-26T16:51:58.793Z,101299.44
2022-08-26T16:54:39.819Z,101298.38
2022-08-26T16:57:30.923Z,101304.41
2022-08-26T17:00:21.293Z,101303.25
2022-08-26T17:03:10.362Z,101299.63
2022-08-26T17:05:51.260Z,101310.97
2022-08-26T17:08:39.739Z,101307.63
2022-08-26T17:11:21.007Z,101311.56
2022-08-26T17:14:11.105Z,101311.66
2022-08-26T17:16:53.651Z,101315.09
2022-08-26T17:19:47.219Z,101315.72
2022-08-26T17:22:32.736Z,101319.25
2022-08-26T17:25:31.179Z,101305.44
2022-08-26T17:28:13.535Z,101311.75
2022-08-26T17:31:04.268Z,101309.50
2022-08-26T17:33:48.991Z,101312.34
2022-08-26T17:36:42.746Z,101310.53
2022-08-26T17:39:29.220Z,101313.09
2022-08-26T17:42:10.528Z,101304.00
2022-08-26T17:44:58.884Z,101305.09
2022-08-26T17:47:41.481Z,101308.56
2022-08-26T17:50:31.242Z,101313.38
2022-08-26T17:53:18.494Z,101311.88
2022-08-26T17:56:07.353Z,101316.69
2022-08-26T17:58:51.592Z,101308.69
2022-08-26T18:01:42.619Z,101310.88
2022-08-26T18:04:23.398Z,101312.66
2022-08-26T18:07:10.779Z,101316.69
2022-08-26T18:09:52.499Z,101310.44
2022-08-26T18:12:41.050Z,101315.78
2022-08-26T18:15:30.184Z,101312.44
2022-08-26T18:18:22.350Z,101312.69
2022-08-26T18:21:05.168Z,101313.06
2022-08-26T18:23:57.329Z,101307.78
2022-08-26T18:26:45.875Z,101308.75
2022-08-26T18:29:35.033Z,101314.88
2022-08-26T18:32:16.136Z,101306.75
2022-08-26T18:35:04.282Z,101303.34
2022-08-26T18:38:01.441Z,101302.75
2022-08-26T18:41:01.078Z,101302.16
2022-08-26T18:43:42.157Z,101311.19
2022-08-26T18:46:31.394Z,101306.28
2022-08-26T18:49:12.631Z,101302.88
2022-08-26T18:52:00.436Z,101308.41
2022-08-26T18:54:41.541Z,101316.03
2022-08-26T18:57:29.281Z,101309.28
2022-08-26T19:00:15.718Z,101315.38
2022-08-26T19:03:02.726Z,101316.38
2022-08-26T19:05:48.177Z,101314.25
2022-08-26T19:08:37.267Z,101320.91
2022-08-26T19:11:30.163Z,101309.38
2022-08-26T19:14:22.865Z,101311.66
2022-08-26T19:17:03.275Z,101316.25
2022-08-26T19:19:53.601Z,101316.38
2022-08-26T19:22:34.176Z,101312.75
2022-08-26T19:25:23.069Z,101311.44
2022-08-26T19:28:05.342Z,101327.09
2022-08-26T19:30:56.336Z,101318.72
2022-08-26T19:33:37.185Z,101321.38
2022-08-26T19:36:31.271Z,101327.84
2022-08-26T19:39:19.183Z,101324.25
2022-08-26T19:42:01.329Z,101323.50
2022-08-26T19:45:15.742Z,101321.72
2022-08-26T19:48:06.606Z,101332.78
2022-08-26T19:50:55.189Z,101336.00
2022-08-26T19:53:37.531Z,101337.88
2022-08-26T19:56:34.632Z,101332.78
2022-08-26T19:59:16.212Z,101332.28
2022-08-26T20:02:05.061Z,101337.19
2022-08-26T20:04:48.324Z,101336.13
2022-08-26T20:07:36.195Z,101339.03
2022-08-26T20:10:21.124Z,101334.75
2022-08-26T20:13:10.591Z,101339.13
2022-08-26T20:15:52.326Z,101343.50
2022-08-26T20:19:00.356Z,101351.19
2022-08-26T20:21:45.691Z,101340.97
2022-08-26T20:24:34.603Z,101344.81
2022-08-26T20:27:15.607Z,101338.78
2022-08-26T20:30:05.442Z,101348.50
2022-08-26T20:32:48.475Z,101347.69
2022-08-26T20:35:36.645Z,101357.63
2022-08-26T20:38:31.221Z,101351.25
2022-08-26T20:41:18.432Z,101356.19
2022-08-26T20:44:02.571Z,101356.09
2022-08-26T20:46:51.324Z,101351.94
2022-08-26T20:49:33.381Z,101348.09
2022-08-26T20:52:23.445Z,101353.00
2022-08-26T20:55:07.953Z,101355.72
2022-08-26T20:57:56.309Z,101351.56
2022-08-26T21:00:39.357Z,101350.72
2022-08-26T21:03:31.804Z,101344.41
2022-08-26T21:06:12.544Z,101350.66
2022-08-26T21:09:00.277Z,101349.81
2022-08-26T21:11:44.340Z,101349.19
2022-08-26T21:14:35.392Z,101355.28
2022-08-26T21:17:17.789Z,101351.91
2022-08-26T21:20:04.781Z,101358.25
2022-08-26T21:22:45.831Z,101359.13
2022-08-26T21:25:34.427Z,101353.72
2022-08-26T21:28:17.033Z,101352.84
2022-08-26T21:31:09.355Z,101351.78
2022-08-26T21:33:51.084Z,101349.19
2022-08-26T21:36:40.409Z,101351.75
2022-08-26T21:39:30.834Z,101354.34
2022-08-26T21:42:11.653Z,101348.31
2022-08-26T21:44:58.363Z,101351.00
2022-08-26T21:47:41.663Z,101355.41
2022-08-26T21:50:30.569Z,101352.97
2022-08-26T21:53:13.777Z,101355.50
2022-08-26T21:56:00.371Z,101352.00
2022-08-26T21:58:43.517Z,101359.72
2022-08-26T22:01:34.913Z,101355.53
2022-08-26T22:04:17.559Z,101354.63
2022-08-26T22:07:05.032Z,101354.78
2022-08-26T22:09:46.557Z,101355.66
2022-08-26T22:12:36.629Z,101351.19
2022-08-26T22:15:18.699Z,101359.19
2022-08-26T22:18:08.868Z,101356.69
2022-08-26T22:20:51.111Z,101364.47
2022-08-26T22:23:40.658Z,101358.53
2022-08-26T22:26:25.731Z,101358.56
2022-08-26T22:29:16.393Z,101367.34
2022-08-26T22:32:12.841Z,101357.72
2022-08-26T22:34:54.236Z,101370.00
2022-08-26T22:37:44.297Z,101372.69
2022-08-26T22:40:33.901Z,101379.75
2022-08-26T22:43:17.067Z,101374.50
2022-08-26T22:46:05.340Z,101377.13
2022-08-26T22:48:47.086Z,101375.25
2022-08-26T22:51:41.402Z,101370.88
2022-08-26T22:54:24.460Z,101372.69
2022-08-26T22:57:14.710Z,101371.84
2022-08-26T22:59:56.313Z,101374.38
2022-08-26T23:02:44.669Z,101370.97
2022-08-26T23:05:25.508Z,101372.63
2022-08-26T23:08:13.222Z,101376.25
2022-08-26T23:10:55.790Z,101372.72
2022-08-26T23:13:44.450Z,101370.97
2022-08-26T23:16:25.566Z,101362.16
2022-08-26T23:19:13.212Z,101367.47
2022-08-26T23:21:56.394Z,101368.06
2022-08-26T23:24:43.494Z,101368.84
2022-08-26T23:27:25.836Z,101357.81
2022-08-26T23:30:19.570Z,101353.34
2022-08-26T23:33:01.326Z,101344.03
2022-08-26T23:35:48.426Z,101347.56
2022-08-26T23:38:45.349Z,101355.31
2022-08-26T23:41:42.981Z,101350.16
2022-08-26T23:44:24.449Z,101351.31
2022-08-26T23:47:13.464Z,101353.94
2022-08-26T23:49:54.347Z,101354.81
2022-08-26T23:53:00.992Z,101357.63
2022-08-26T23:55:46.167Z,101344.72
2022-08-26T23:58:34.443Z,101345.34
